sensor_id;sensor_type;location;lat;lon;timestamp;P1;durP1;ratioP1;P2;durP2;ratioP2
34920;SDS011;21128;50.016;20.002;2022-10-04T00:01:51;20.73;;;7.83;;
34920;SDS011;21128;50.016;20.002;2022-10-04T00:04:24;18.17;;;7.20;;
34920;SDS011;21128;50.016;20.002;2022-10-04T00:09:57;18.05;;;7.65;;
34920;SDS011;21128;50.016;20.002;2022-10-04T00:12:35;17.73;;;7.63;;
34920;SDS011;21128;50.016;20.002;2022-10-04T00:15:17;19.60;;;8.00;;
34920;SDS011;21128;50.016;20.002;2022-10-04T00:18:00;20.65;;;7.70;;
34920;SDS011;21128;50.016;20.002;2022-10-04T00:25:57;26.70;;;7.67;;
34920;SDS011;21128;50.016;20.002;2022-10-04T00:31:08;19.55;;;8.15;;
34920;SDS011;21128;50.016;20.002;2022-10-04T00:46:55;24.43;;;8.80;;
34920;SDS011;21128;50.016;20.002;2022-10-04T00:49:25;22.30;;;9.07;;
34920;SDS011;21128;50.016;20.002;2022-10-04T00:52:00;21.93;;;8.73;;
34920;SDS011;21128;50.016;20.002;2022-10-04T00:54:47;15.77;;;8.27;;
34920;SDS011;21128;50.016;20.002;2022-10-04T00:57:21;21.37;;;9.00;;
34920;SDS011;21128;50.016;20.002;2022-10-04T00:59:55;18.73;;;8.97;;
34920;SDS011;21128;50.016;20.002;2022-10-04T01:02:36;15.53;;;8.23;;
34920;SDS011;21128;50.016;20.002;2022-10-04T01:05:14;17.83;;;8.90;;
34920;SDS011;21128;50.016;20.002;2022-10-04T01:07:50;24.23;;;9.70;;
34920;SDS011;21128;50.016;20.002;2022-10-04T01:13:23;17.00;;;7.97;;
34920;SDS011;21128;50.016;20.002;2022-10-04T01:21:57;19.77;;;8.57;;
34920;SDS011;21128;50.016;20.002;2022-10-04T01:24:33;15.37;;;8.07;;
34920;SDS011;21128;50.016;20.002;2022-10-04T01:27:06;16.27;;;8.70;;
34920;SDS011;21128;50.016;20.002;2022-10-04T01:29:58;19.93;;;8.10;;
34920;SDS011;21128;50.016;20.002;2022-10-04T01:32:26;16.60;;;8.20;;
34920;SDS011;21128;50.016;20.002;2022-10-04T01:35:00;18.02;;;8.08;;
34920;SDS011;21128;50.016;20.002;2022-10-04T01:37:27;17.87;;;7.10;;
34920;SDS011;21128;50.016;20.002;2022-10-04T01:39:54;23.40;;;7.57;;
34920;SDS011;21128;50.016;20.002;2022-10-04T01:43:05;11.83;;;7.33;;
34920;SDS011;21128;50.016;20.002;2022-10-04T01:48:08;19.10;;;8.03;;
34920;SDS011;21128;50.016;20.002;2022-10-04T01:50:46;17.73;;;7.67;;
34920;SDS011;21128;50.016;20.002;2022-10-04T01:53:30;17.93;;;7.73;;
34920;SDS011;21128;50.016;20.002;2022-10-04T01:56:13;16.40;;;7.67;;
34920;SDS011;21128;50.016;20.002;2022-10-04T01:58:56;18.13;;;8.43;;
34920;SDS011;21128;50.016;20.002;2022-10-04T02:01:47;14.97;;;7.97;;
34920;SDS011;21128;50.016;20.002;2022-10-04T02:04:22;14.73;;;7.77;;
34920;SDS011;21128;50.016;20.002;2022-10-04T02:07:01;17.15;;;8.88;;
34920;SDS011;21128;50.016;20.002;2022-10-04T02:09:52;18.00;;;8.67;;
34920;SDS011;21128;50.016;20.002;2022-10-04T02:12:28;23.00;;;9.13;;
34920;SDS011;21128;50.016;20.002;2022-10-04T02:14:58;16.63;;;8.50;;
34920;SDS011;21128;50.016;20.002;2022-10-04T02:17:28;21.57;;;9.87;;
34920;SDS011;21128;50.016;20.002;2022-10-04T02:20:07;19.70;;;7.73;;
34920;SDS011;21128;50.016;20.002;2022-10-04T02:22:50;18.10;;;8.03;;
34920;SDS011;21128;50.016;20.002;2022-10-04T02:25:22;18.98;;;7.92;;
34920;SDS011;21128;50.016;20.002;2022-10-04T02:27:50;17.55;;;8.80;;
34920;SDS011;21128;50.016;20.002;2022-10-04T02:30:19;14.70;;;8.75;;
34920;SDS011;21128;50.016;20.002;2022-10-04T02:32:46;20.23;;;9.27;;
34920;SDS011;21128;50.016;20.002;2022-10-04T02:35:24;23.07;;;9.30;;
34920;SDS011;21128;50.016;20.002;2022-10-04T02:43:31;17.47;;;7.27;;
34920;SDS011;21128;50.016;20.002;2022-10-04T02:48:56;15.75;;;6.90;;
34920;SDS011;21128;50.016;20.002;2022-10-04T02:51:33;15.40;;;6.47;;
34920;SDS011;21128;50.016;20.002;2022-10-04T02:57:17;12.85;;;5.80;;
34920;SDS011;21128;50.016;20.002;2022-10-04T02:59:47;15.77;;;6.17;;
34920;SDS011;21128;50.016;20.002;2022-10-04T03:02:22;16.07;;;5.47;;
34920;SDS011;21128;50.016;20.002;2022-10-04T03:04:52;15.57;;;5.00;;
34920;SDS011;21128;50.016;20.002;2022-10-04T03:07:22;21.57;;;5.20;;
34920;SDS011;21128;50.016;20.002;2022-10-04T03:09:49;14.13;;;5.60;;
34920;SDS011;21128;50.016;20.002;2022-10-04T03:12:17;10.90;;;5.20;;
34920;SDS011;21128;50.016;20.002;2022-10-04T03:14:44;15.23;;;5.27;;
34920;SDS011;21128;50.016;20.002;2022-10-04T03:17:12;11.93;;;5.03;;
34920;SDS011;21128;50.016;20.002;2022-10-04T03:19:41;13.87;;;5.40;;
34920;SDS011;21128;50.016;20.002;2022-10-04T03:22:10;14.53;;;5.67;;
34920;SDS011;21128;50.016;20.002;2022-10-04T03:24:38;15.77;;;5.70;;
34920;SDS011;21128;50.016;20.002;2022-10-04T03:27:14;16.73;;;6.17;;
34920;SDS011;21128;50.016;20.002;2022-10-04T03:29:45;17.20;;;6.53;;
34920;SDS011;21128;50.016;20.002;2022-10-04T03:32:13;18.27;;;6.60;;
34920;SDS011;21128;50.016;20.002;2022-10-04T03:34:47;24.17;;;6.90;;
34920;SDS011;21128;50.016;20.002;2022-10-04T03:37:34;20.50;;;7.60;;
34920;SDS011;21128;50.016;20.002;2022-10-04T03:40:03;16.20;;;6.50;;
34920;SDS011;21128;50.016;20.002;2022-10-04T03:42:35;10.40;;;5.17;;
34920;SDS011;21128;50.016;20.002;2022-10-04T03:45:11;22.83;;;7.93;;
34920;SDS011;21128;50.016;20.002;2022-10-04T03:47:43;20.48;;;7.22;;
34920;SDS011;21128;50.016;20.002;2022-10-04T03:50:15;15.13;;;6.70;;
34920;SDS011;21128;50.016;20.002;2022-10-04T03:52:54;16.20;;;6.87;;
34920;SDS011;21128;50.016;20.002;2022-10-04T03:55:34;19.00;;;7.75;;
34920;SDS011;21128;50.016;20.002;2022-10-04T03:58:16;18.57;;;6.53;;
34920;SDS011;21128;50.016;20.002;2022-10-04T04:00:55;14.37;;;6.27;;
34920;SDS011;21128;50.016;20.002;2022-10-04T04:03:35;16.90;;;6.57;;
34920;SDS011;21128;50.016;20.002;2022-10-04T04:06:18;16.07;;;6.53;;
34920;SDS011;21128;50.016;20.002;2022-10-04T04:08:48;18.00;;;5.47;;
34920;SDS011;21128;50.016;20.002;2022-10-04T04:11:23;16.57;;;5.70;;
34920;SDS011;21128;50.016;20.002;2022-10-04T04:14:00;12.73;;;5.83;;
34920;SDS011;21128;50.016;20.002;2022-10-04T04:16:34;19.37;;;5.60;;
34920;SDS011;21128;50.016;20.002;2022-10-04T04:19:03;16.77;;;5.50;;
34920;SDS011;21128;50.016;20.002;2022-10-04T04:21:44;17.30;;;5.70;;
34920;SDS011;21128;50.016;20.002;2022-10-04T04:24:19;14.47;;;5.37;;
34920;SDS011;21128;50.016;20.002;2022-10-04T04:26:58;13.77;;;4.83;;
34920;SDS011;21128;50.016;20.002;2022-10-04T04:29:47;21.67;;;5.47;;
34920;SDS011;21128;50.016;20.002;2022-10-04T04:32:24;13.53;;;4.73;;
34920;SDS011;21128;50.016;20.002;2022-10-04T04:34:58;16.07;;;5.00;;
34920;SDS011;21128;50.016;20.002;2022-10-04T04:37:34;12.57;;;5.03;;
34920;SDS011;21128;50.016;20.002;2022-10-04T04:40:21;12.90;;;5.37;;
34920;SDS011;21128;50.016;20.002;2022-10-04T04:42:50;12.05;;;5.00;;
34920;SDS011;21128;50.016;20.002;2022-10-04T04:45:19;11.50;;;5.27;;
34920;SDS011;21128;50.016;20.002;2022-10-04T04:47:52;13.63;;;5.13;;
34920;SDS011;21128;50.016;20.002;2022-10-04T04:50:28;13.20;;;5.03;;
34920;SDS011;21128;50.016;20.002;2022-10-04T04:53:13;14.77;;;4.67;;
34920;SDS011;21128;50.016;20.002;2022-10-04T04:55:44;14.47;;;4.70;;
34920;SDS011;21128;50.016;20.002;2022-10-04T04:58:18;16.50;;;5.07;;
34920;SDS011;21128;50.016;20.002;2022-10-04T05:00:53;15.13;;;4.77;;
34920;SDS011;21128;50.016;20.002;2022-10-04T05:03:27;11.33;;;4.70;;
34920;SDS011;21128;50.016;20.002;2022-10-04T05:05:56;13.43;;;4.80;;
34920;SDS011;21128;50.016;20.002;2022-10-04T05:08:27;17.63;;;5.70;;
34920;SDS011;21128;50.016;20.002;2022-10-04T05:13:41;12.40;;;5.30;;
34920;SDS011;21128;50.016;20.002;2022-10-04T05:16:13;18.90;;;6.13;;
34920;SDS011;21128;50.016;20.002;2022-10-04T05:18:41;15.50;;;5.63;;
34920;SDS011;21128;50.016;20.002;2022-10-04T05:21:14;15.87;;;6.33;;
34920;SDS011;21128;50.016;20.002;2022-10-04T05:24:17;16.80;;;6.70;;
34920;SDS011;21128;50.016;20.002;2022-10-04T05:26:56;13.97;;;6.43;;
34920;SDS011;21128;50.016;20.002;2022-10-04T05:29:33;15.23;;;6.93;;
34920;SDS011;21128;50.016;20.002;2022-10-04T05:34:56;14.37;;;6.63;;
34920;SDS011;21128;50.016;20.002;2022-10-04T05:43:45;20.13;;;7.40;;
34920;SDS011;21128;50.016;20.002;2022-10-04T05:46:32;20.43;;;6.35;;
34920;SDS011;21128;50.016;20.002;2022-10-04T05:49:03;21.47;;;6.90;;
34920;SDS011;21128;50.016;20.002;2022-10-04T05:51:51;13.28;;;6.30;;
34920;SDS011;21128;50.016;20.002;2022-10-04T05:54:34;20.40;;;5.73;;
34920;SDS011;21128;50.016;20.002;2022-10-04T05:57:06;24.93;;;6.27;;
34920;SDS011;21128;50.016;20.002;2022-10-04T06:09:09;17.20;;;5.80;;
34920;SDS011;21128;50.016;20.002;2022-10-04T06:21:03;19.10;;;5.27;;
34920;SDS011;21128;50.016;20.002;2022-10-04T06:24:12;16.03;;;5.90;;
34920;SDS011;21128;50.016;20.002;2022-10-04T06:27:12;16.80;;;6.10;;
34920;SDS011;21128;50.016;20.002;2022-10-04T06:29:53;17.30;;;5.05;;
34920;SDS011;21128;50.016;20.002;2022-10-04T06:38:05;18.43;;;5.57;;
34920;SDS011;21128;50.016;20.002;2022-10-04T06:46:37;22.03;;;5.83;;
34920;SDS011;21128;50.016;20.002;2022-10-04T06:55:31;16.90;;;4.80;;
34920;SDS011;21128;50.016;20.002;2022-10-04T06:57:53;11.77;;;5.10;;
34920;SDS011;21128;50.016;20.002;2022-10-04T07:01:04;17.30;;;4.63;;
34920;SDS011;21128;50.016;20.002;2022-10-04T07:06:28;12.33;;;4.43;;
34920;SDS011;21128;50.016;20.002;2022-10-04T07:09:00;13.10;;;4.43;;
34920;SDS011;21128;50.016;20.002;2022-10-04T07:11:42;16.70;;;4.67;;
34920;SDS011;21128;50.016;20.002;2022-10-04T07:14:17;11.63;;;3.97;;
34920;SDS011;21128;50.016;20.002;2022-10-04T07:16:52;9.70;;;3.70;;
34920;SDS011;21128;50.016;20.002;2022-10-04T07:19:29;15.80;;;4.50;;
34920;SDS011;21128;50.016;20.002;2022-10-04T07:27:30;16.10;;;4.70;;
34920;SDS011;21128;50.016;20.002;2022-10-04T07:29:59;15.53;;;4.43;;
34920;SDS011;21128;50.016;20.002;2022-10-04T07:32:44;10.48;;;4.28;;
34920;SDS011;21128;50.016;20.002;2022-10-04T07:35:35;20.83;;;4.47;;
34920;SDS011;21128;50.016;20.002;2022-10-04T07:38:08;17.23;;;4.90;;
34920;SDS011;21128;50.016;20.002;2022-10-04T07:43:26;20.20;;;4.97;;
34920;SDS011;21128;50.016;20.002;2022-10-04T07:46:09;13.97;;;4.30;;
34920;SDS011;21128;50.016;20.002;2022-10-04T07:48:57;18.67;;;5.27;;
34920;SDS011;21128;50.016;20.002;2022-10-04T07:51:28;20.13;;;4.97;;
34920;SDS011;21128;50.016;20.002;2022-10-04T07:54:16;16.50;;;5.07;;
34920;SDS011;21128;50.016;20.002;2022-10-04T07:56:59;9.45;;;3.75;;
34920;SDS011;21128;50.016;20.002;2022-10-04T07:59:44;11.17;;;4.60;;
34920;SDS011;21128;50.016;20.002;2022-10-04T08:02:24;15.90;;;4.13;;
34920;SDS011;21128;50.016;20.002;2022-10-04T08:05:40;11.60;;;4.03;;
34920;SDS011;21128;50.016;20.002;2022-10-04T08:08:26;11.45;;;3.95;;
34920;SDS011;21128;50.016;20.002;2022-10-04T08:19:46;15.90;;;4.17;;
34920;SDS011;21128;50.016;20.002;2022-10-04T08:35:44;18.13;;;4.43;;
34920;SDS011;21128;50.016;20.002;2022-10-04T08:38:51;13.63;;;4.20;;
34920;SDS011;21128;50.016;20.002;2022-10-04T08:42:27;11.05;;;3.85;;
34920;SDS011;21128;50.016;20.002;2022-10-04T08:53:34;12.25;;;3.70;;
34920;SDS011;21128;50.016;20.002;2022-10-04T08:56:42;17.10;;;4.20;;
34920;SDS011;21128;50.016;20.002;2022-10-04T09:21:11;10.90;;;3.27;;
34920;SDS011;21128;50.016;20.002;2022-10-04T09:29:47;10.93;;;3.87;;
34920;SDS011;21128;50.016;20.002;2022-10-04T09:35:58;12.17;;;4.00;;
34920;SDS011;21128;50.016;20.002;2022-10-04T09:38:53;11.67;;;3.77;;
34920;SDS011;21128;50.016;20.002;2022-10-04T09:47:59;15.93;;;4.40;;
34920;SDS011;21128;50.016;20.002;2022-10-04T09:54:13;13.63;;;3.53;;
34920;SDS011;21128;50.016;20.002;2022-10-04T10:00:21;19.50;;;4.27;;
34920;SDS011;21128;50.016;20.002;2022-10-04T10:18:42;15.17;;;3.70;;
34920;SDS011;21128;50.016;20.002;2022-10-04T10:21:50;11.37;;;4.07;;
34920;SDS011;21128;50.016;20.002;2022-10-04T10:36:25;9.90;;;3.60;;
34920;SDS011;21128;50.016;20.002;2022-10-04T10:59:02;9.30;;;2.60;;
34920;SDS011;21128;50.016;20.002;2022-10-04T11:15:37;7.15;;;2.00;;
34920;SDS011;21128;50.016;20.002;2022-10-04T11:24:26;8.85;;;2.20;;
34920;SDS011;21128;50.016;20.002;2022-10-04T11:29:46;4.35;;;1.75;;
34920;SDS011;21128;50.016;20.002;2022-10-04T11:43:45;6.65;;;1.70;;
34920;SDS011;21128;50.016;20.002;2022-10-04T11:54:57;7.50;;;1.90;;
34920;SDS011;21128;50.016;20.002;2022-10-04T11:57:50;14.93;;;2.10;;
34920;SDS011;21128;50.016;20.002;2022-10-04T12:00:25;9.67;;;2.10;;
34920;SDS011;21128;50.016;20.002;2022-10-04T12:20:40;6.37;;;1.70;;
34920;SDS011;21128;50.016;20.002;2022-10-04T12:26:29;7.77;;;1.57;;
34920;SDS011;21128;50.016;20.002;2022-10-04T12:32:30;9.95;;;1.80;;
34920;SDS011;21128;50.016;20.002;2022-10-04T12:51:34;8.20;;;1.97;;
34920;SDS011;21128;50.016;20.002;2022-10-04T13:00:12;9.47;;;2.40;;
34920;SDS011;21128;50.016;20.002;2022-10-04T13:05:36;10.80;;;2.53;;
34920;SDS011;21128;50.016;20.002;2022-10-04T13:31:44;6.95;;;1.70;;
34920;SDS011;21128;50.016;20.002;2022-10-04T13:40:06;7.73;;;1.90;;
34920;SDS011;21128;50.016;20.002;2022-10-04T13:42:57;4.67;;;1.70;;
34920;SDS011;21128;50.016;20.002;2022-10-04T13:54:33;9.40;;;1.80;;
34920;SDS011;21128;50.016;20.002;2022-10-04T14:00:04;8.50;;;1.85;;
34920;SDS011;21128;50.016;20.002;2022-10-04T14:08:47;14.40;;;2.40;;
34920;SDS011;21128;50.016;20.002;2022-10-04T14:14:39;6.63;;;1.63;;
34920;SDS011;21128;50.016;20.002;2022-10-04T14:17:39;4.15;;;1.65;;
34920;SDS011;21128;50.016;20.002;2022-10-04T14:23:14;8.50;;;2.10;;
34920;SDS011;21128;50.016;20.002;2022-10-04T14:28:45;8.87;;;1.90;;
34920;SDS011;21128;50.016;20.002;2022-10-04T14:34:26;9.23;;;2.00;;
34920;SDS011;21128;50.016;20.002;2022-10-04T15:01:17;5.07;;;1.73;;
34920;SDS011;21128;50.016;20.002;2022-10-04T15:06:47;5.50;;;1.67;;
34920;SDS011;21128;50.016;20.002;2022-10-04T15:10:01;7.40;;;2.00;;
34920;SDS011;21128;50.016;20.002;2022-10-04T15:15:19;10.53;;;2.10;;
34920;SDS011;21128;50.016;20.002;2022-10-04T15:18:04;4.57;;;1.83;;
34920;SDS011;21128;50.016;20.002;2022-10-04T15:23:34;8.93;;;2.23;;
34920;SDS011;21128;50.016;20.002;2022-10-04T15:37:24;7.30;;;1.97;;
34920;SDS011;21128;50.016;20.002;2022-10-04T15:40:02;7.97;;;2.20;;
34920;SDS011;21128;50.016;20.002;2022-10-04T15:48:38;5.50;;;2.00;;
34920;SDS011;21128;50.016;20.002;2022-10-04T15:57:16;8.27;;;2.37;;
34920;SDS011;21128;50.016;20.002;2022-10-04T16:00:01;6.20;;;2.35;;
34920;SDS011;21128;50.016;20.002;2022-10-04T16:05:59;9.70;;;2.60;;
34920;SDS011;21128;50.016;20.002;2022-10-04T16:09:13;8.20;;;2.25;;
34920;SDS011;21128;50.016;20.002;2022-10-04T16:12:00;13.30;;;2.50;;
34920;SDS011;21128;50.016;20.002;2022-10-04T16:14:59;8.37;;;2.60;;
34920;SDS011;21128;50.016;20.002;2022-10-04T16:25:55;10.80;;;2.50;;
34920;SDS011;21128;50.016;20.002;2022-10-04T16:34:31;7.65;;;2.85;;
34920;SDS011;21128;50.016;20.002;2022-10-04T16:40:26;9.33;;;2.70;;
34920;SDS011;21128;50.016;20.002;2022-10-04T16:43:26;9.47;;;3.80;;
34920;SDS011;21128;50.016;20.002;2022-10-04T16:46:41;7.57;;;2.97;;
34920;SDS011;21128;50.016;20.002;2022-10-04T16:49:20;13.75;;;3.05;;
34920;SDS011;21128;50.016;20.002;2022-10-04T16:54:41;15.50;;;4.17;;
34920;SDS011;21128;50.016;20.002;2022-10-04T16:57:20;7.30;;;3.27;;
34920;SDS011;21128;50.016;20.002;2022-10-04T17:03:07;9.35;;;2.55;;
34920;SDS011;21128;50.016;20.002;2022-10-04T17:06:00;11.90;;;3.08;;
34920;SDS011;21128;50.016;20.002;2022-10-04T17:08:47;7.60;;;2.43;;
34920;SDS011;21128;50.016;20.002;2022-10-04T17:11:39;8.85;;;3.20;;
34920;SDS011;21128;50.016;20.002;2022-10-04T17:17:28;17.73;;;3.33;;
34920;SDS011;21128;50.016;20.002;2022-10-04T17:23:16;15.07;;;3.07;;
34920;SDS011;21128;50.016;20.002;2022-10-04T17:26:12;11.03;;;3.50;;
34920;SDS011;21128;50.016;20.002;2022-10-04T17:28:56;9.25;;;3.70;;
34920;SDS011;21128;50.016;20.002;2022-10-04T17:45:24;15.40;;;4.80;;
34920;SDS011;21128;50.016;20.002;2022-10-04T17:48:17;18.40;;;5.90;;
34920;SDS011;21128;50.016;20.002;2022-10-04T17:54:15;13.13;;;5.70;;
34920;SDS011;21128;50.016;20.002;2022-10-04T17:57:10;14.75;;;5.25;;
34920;SDS011;21128;50.016;20.002;2022-10-04T17:59:52;18.47;;;5.50;;
34920;SDS011;21128;50.016;20.002;2022-10-04T18:04:59;17.27;;;5.97;;
34920;SDS011;21128;50.016;20.002;2022-10-04T18:07:36;15.47;;;5.87;;
34920;SDS011;21128;50.016;20.002;2022-10-04T18:10:16;17.10;;;5.70;;
34920;SDS011;21128;50.016;20.002;2022-10-04T18:15:37;18.83;;;6.30;;
34920;SDS011;21128;50.016;20.002;2022-10-04T18:18:24;16.40;;;6.70;;
34920;SDS011;21128;50.016;20.002;2022-10-04T18:23:26;13.80;;;6.70;;
34920;SDS011;21128;50.016;20.002;2022-10-04T18:26:18;13.23;;;7.30;;
34920;SDS011;21128;50.016;20.002;2022-10-04T18:28:47;15.00;;;6.23;;
34920;SDS011;21128;50.016;20.002;2022-10-04T18:33:50;14.30;;;6.77;;
34920;SDS011;21128;50.016;20.002;2022-10-04T18:36:28;13.53;;;5.93;;
34920;SDS011;21128;50.016;20.002;2022-10-04T18:41:42;20.95;;;6.80;;
34920;SDS011;21128;50.016;20.002;2022-10-04T18:44:44;19.95;;;7.95;;
34920;SDS011;21128;50.016;20.002;2022-10-04T18:47:17;18.90;;;7.47;;
34920;SDS011;21128;50.016;20.002;2022-10-04T18:50:12;16.30;;;6.70;;
34920;SDS011;21128;50.016;20.002;2022-10-04T18:52:50;15.90;;;8.00;;
34920;SDS011;21128;50.016;20.002;2022-10-04T18:58:47;17.23;;;7.97;;
34920;SDS011;21128;50.016;20.002;2022-10-04T19:05:17;15.50;;;7.03;;
34920;SDS011;21128;50.016;20.002;2022-10-04T19:10:57;14.13;;;6.90;;
34920;SDS011;21128;50.016;20.002;2022-10-04T19:13:51;21.95;;;7.95;;
34920;SDS011;21128;50.016;20.002;2022-10-04T19:16:23;17.47;;;7.63;;
34920;SDS011;21128;50.016;20.002;2022-10-04T19:18:57;20.20;;;7.40;;
34920;SDS011;21128;50.016;20.002;2022-10-04T19:35:57;22.37;;;7.50;;
34920;SDS011;21128;50.016;20.002;2022-10-04T19:42:09;18.47;;;7.93;;
34920;SDS011;21128;50.016;20.002;2022-10-04T19:50:17;17.67;;;7.50;;
34920;SDS011;21128;50.016;20.002;2022-10-04T19:53:01;18.60;;;7.87;;
34920;SDS011;21128;50.016;20.002;2022-10-04T20:00:56;19.00;;;7.50;;
34920;SDS011;21128;50.016;20.002;2022-10-04T20:03:23;20.40;;;7.73;;
34920;SDS011;21128;50.016;20.002;2022-10-04T20:05:52;16.27;;;6.33;;
34920;SDS011;21128;50.016;20.002;2022-10-04T20:11:14;15.47;;;6.30;;
34920;SDS011;21128;50.016;20.002;2022-10-04T20:19:35;18.20;;;7.70;;
34920;SDS011;21128;50.016;20.002;2022-10-04T20:35:09;19.73;;;7.27;;
34920;SDS011;21128;50.016;20.002;2022-10-04T20:40:55;20.53;;;7.60;;
34920;SDS011;21128;50.016;20.002;2022-10-04T20:45:49;20.75;;;8.15;;
34920;SDS011;21128;50.016;20.002;2022-10-04T20:48:33;18.03;;;7.57;;
34920;SDS011;21128;50.016;20.002;2022-10-04T20:51:07;17.63;;;8.20;;
34920;SDS011;21128;50.016;20.002;2022-10-04T20:53:44;16.40;;;7.73;;
34920;SDS011;21128;50.016;20.002;2022-10-04T20:56:29;18.83;;;8.40;;
34920;SDS011;21128;50.016;20.002;2022-10-04T20:58:59;15.93;;;8.83;;
34920;SDS011;21128;50.016;20.002;2022-10-04T21:01:41;19.60;;;9.20;;
34920;SDS011;21128;50.016;20.002;2022-10-04T21:09:18;19.20;;;9.47;;
34920;SDS011;21128;50.016;20.002;2022-10-04T21:11:45;21.73;;;8.65;;
34920;SDS011;21128;50.016;20.002;2022-10-04T21:16:51;17.47;;;8.10;;
34920;SDS011;21128;50.016;20.002;2022-10-04T21:21:59;20.83;;;8.73;;
34920;SDS011;21128;50.016;20.002;2022-10-04T21:24:41;20.20;;;9.00;;
34920;SDS011;21128;50.016;20.002;2022-10-04T21:30:03;20.00;;;8.20;;
34920;SDS011;21128;50.016;20.002;2022-10-04T21:32:34;19.30;;;8.23;;
34920;SDS011;21128;50.016;20.002;2022-10-04T21:35:03;18.93;;;8.53;;
34920;SDS011;21128;50.016;20.002;2022-10-04T21:37:31;16.23;;;9.00;;
34920;SDS011;21128;50.016;20.002;2022-10-04T21:39:59;18.53;;;9.10;;
34920;SDS011;21128;50.016;20.002;2022-10-04T21:42:26;16.87;;;9.80;;
34920;SDS011;21128;50.016;20.002;2022-10-04T21:45:00;18.33;;;9.67;;
34920;SDS011;21128;50.016;20.002;2022-10-04T21:47:27;21.97;;;9.50;;
34920;SDS011;21128;50.016;20.002;2022-10-04T21:49:54;22.07;;;9.63;;
34920;SDS011;21128;50.016;20.002;2022-10-04T21:52:20;20.03;;;9.80;;
34920;SDS011;21128;50.016;20.002;2022-10-04T21:54:47;22.33;;;9.60;;
34920;SDS011;21128;50.016;20.002;2022-10-04T21:57:14;19.53;;;9.60;;
34920;SDS011;21128;50.016;20.002;2022-10-04T21:59:48;16.70;;;8.65;;
34920;SDS011;21128;50.016;20.002;2022-10-04T22:02:14;20.83;;;9.97;;
34920;SDS011;21128;50.016;20.002;2022-10-04T22:04:42;17.80;;;9.57;;
34920;SDS011;21128;50.016;20.002;2022-10-04T22:07:15;20.83;;;9.83;;
34920;SDS011;21128;50.016;20.002;2022-10-04T22:09:48;20.97;;;9.70;;
34920;SDS011;21128;50.016;20.002;2022-10-04T22:12:15;21.77;;;10.27;;
34920;SDS011;21128;50.016;20.002;2022-10-04T22:14:41;26.65;;;9.45;;
34920;SDS011;21128;50.016;20.002;2022-10-04T22:17:08;20.70;;;10.00;;
34920;SDS011;21128;50.016;20.002;2022-10-04T22:22:15;20.60;;;10.70;;
34920;SDS011;21128;50.016;20.002;2022-10-04T22:24:43;23.07;;;10.43;;
34920;SDS011;21128;50.016;20.002;2022-10-04T22:27:17;19.17;;;9.77;;
34920;SDS011;21128;50.016;20.002;2022-10-04T22:29:53;19.43;;;9.90;;
34920;SDS011;21128;50.016;20.002;2022-10-04T22:32:22;19.97;;;10.40;;
34920;SDS011;21128;50.016;20.002;2022-10-04T22:35:05;19.93;;;10.80;;
34920;SDS011;21128;50.016;20.002;2022-10-04T22:37:37;20.80;;;11.20;;
34920;SDS011;21128;50.016;20.002;2022-10-04T22:40:19;22.53;;;11.50;;
34920;SDS011;21128;50.016;20.002;2022-10-04T22:43:01;29.10;;;11.40;;
34920;SDS011;21128;50.016;20.002;2022-10-04T22:45:43;23.10;;;10.25;;
34920;SDS011;21128;50.016;20.002;2022-10-04T22:48:10;24.63;;;12.10;;
34920;SDS011;21128;50.016;20.002;2022-10-04T22:50:46;17.90;;;10.35;;
34920;SDS011;21128;50.016;20.002;2022-10-04T22:53:29;21.53;;;10.73;;
34920;SDS011;21128;50.016;20.002;2022-10-04T22:55:55;18.40;;;10.20;;
34920;SDS011;21128;50.016;20.002;2022-10-04T22:58:29;19.17;;;9.37;;
34920;SDS011;21128;50.016;20.002;2022-10-04T23:01:14;20.03;;;10.63;;
34920;SDS011;21128;50.016;20.002;2022-10-04T23:03:44;25.77;;;11.67;;
34920;SDS011;21128;50.016;20.002;2022-10-04T23:06:13;17.43;;;9.93;;
34920;SDS011;21128;50.016;20.002;2022-10-04T23:08:54;19.87;;;9.20;;
34920;SDS011;21128;50.016;20.002;2022-10-04T23:11:29;17.67;;;8.90;;
34920;SDS011;21128;50.016;20.002;2022-10-04T23:14:03;21.87;;;10.03;;
34920;SDS011;21128;50.016;20.002;2022-10-04T23:16:44;18.30;;;9.53;;
34920;SDS011;21128;50.016;20.002;2022-10-04T23:19:11;17.90;;;9.30;;
34920;SDS011;21128;50.016;20.002;2022-10-04T23:21:48;17.17;;;8.47;;
34920;SDS011;21128;50.016;20.002;2022-10-04T23:24:21;21.13;;;9.47;;
34920;SDS011;21128;50.016;20.002;2022-10-04T23:26:55;19.17;;;9.17;;
34920;SDS011;21128;50.016;20.002;2022-10-04T23:29:23;16.83;;;8.80;;
34920;SDS011;21128;50.016;20.002;2022-10-04T23:32:00;19.45;;;8.80;;
34920;SDS011;21128;50.016;20.002;2022-10-04T23:34:57;17.47;;;8.43;;
34920;SDS011;21128;50.016;20.002;2022-10-04T23:37:28;18.13;;;8.93;;
34920;SDS011;21128;50.016;20.002;2022-10-04T23:40:07;16.90;;;10.60;;
34920;SDS011;21128;50.016;20.002;2022-10-04T23:42:48;20.85;;;11.45;;
34920;SDS011;21128;50.016;20.002;2022-10-04T23:45:27;18.37;;;10.73;;
34920;SDS011;21128;50.016;20.002;2022-10-04T23:48:15;21.57;;;11.33;;
34920;SDS011;21128;50.016;20.002;2022-10-04T23:50:55;20.20;;;10.43;;
34920;SDS011;21128;50.016;20.002;2022-10-04T23:53:29;21.40;;;10.77;;
34920;SDS011;21128;50.016;20.002;2022-10-04T23:56:16;20.20;;;10.80;;
34920;SDS011;21128;50.016;20.002;2022-10-04T23:58:49;24.83;;;11.23;;
